Terminal Aerodrome Forecast
Issued by NWS

Current Version | Previous Version | Graphics & Text | Print | Product List | Glossary On
Versions: 1 2 3 4 5 6 7 8 9 10 11 12 13 14 15 16 17 18 19 20
682
FTUS41 KILN 221432 AAA
TAFLCK
TAF AMD
KLCK 221432Z 2215/2312 19007KT P6SM -TSRA SCT025CB BKN035
     FM221600 21010G18KT P6SM BKN040
     FM222300 24009KT 5SM -SHRA VCTS OVC040CB
      TEMPO 2300/2304 2SM -TSRA BKN025CB
     FM230600 23006KT P6SM VCSH BKN050=

USA.gov is the U.S. government's official web portal to all federal, state and local government web resources and services.